Eubank, KY

8:35 PM EDT on September 23, 2014 (GMT -0400)
HALLS BACKYARD WEATHER | Change Station
CLOSE
Current Station
Personal Weather Station
Location: SCIENCE HILL, KY
Elevation: 1076 ft
Nearby Weather Stations

Elev 1076 ft 37.19 °N, 84.62 °W | Updated 47 seconds ago

Clear
Clear
58.9 °F
Feels Like 58.9 °F
N
0.0
Wind Variable Wind from North
Gusts 0.0 mph

Today
High -- | Low -- °F
--% Chance of Precip.
Yesterday
High -- | Low -- °F
Precip. -- in
7:27 AM 7:33 PM
Waning Crescent, 0% visible
Pressure 30.27 in
Visibility 10.0 miles
Clouds Clear
Dew Point 51 °F
Humidity 75%
Rainfall 0.00 in
Snow Depth Not available.
UV 0 out of 12
Pollen 5.10 out of 12
Air Quality Not available.
Flu Activity Not available.
METAR KSME 240015Z AUTO 05005KT 10SM CLR 16/10 A3027 RMK AO2

More Conditions Fewer Conditions

Pressure 30.27 in
Visibility 10.0 miles
Clouds Clear
Dew Point 51 °F
Humidity 75%
Rainfall 0.00 in
Snow Depth Not available.
UV 0 out of 12
Pollen 5.10 out of 12
Air Quality Not available.
Flu Activity Not available.
METAR KSME 240015Z AUTO 05005KT 10SM CLR 16/10 A3027 RMK AO2

More Conditions Fewer Conditions

10-Day Weather Forecast

Almanac

Astronomy

Sep. 23, 2014 Rise Set
Actual Time 7:27 AM EDT 7:33 PM EDT
Civil Twilight 7:01 AM EDT 7:59 PM EDT
Nautical Twilight 6:30 AM EDT 8:30 PM EDT
Astronomical Twilight 5:59 AM EDT 9:00 PM EDT
Moon 6:50 AM EDT (9/23) 7:12 PM EDT (9/23)
Length of Visible Light 12h 58m
Length of Day
12h 06m
Tomorrow will be 2m 22s shorter.
Waning Crescent, 0% of the Moon is Illuminated
Today
Waning Crescent
Sep 24
New
Oct 1
First Quarter
Oct 8
Full
Oct 15
Last Quarter

Today's Extremes

State Highs State Lows

Community

WunderPhotos

Upload Photos

1,755,832 photos uploaded!

WunderBlogs® & News

Nearby

Snow Depth

Station Depth Elevation
No new snow has been reported.

Earthquake Activity

City Distance Mag. Time & Date
No recent earthquake activity has been reported nearby.
Minimum magnitude displayed is 2.5.

Coastal Water Temperatures

Place Temperature
No Stations Reporting

Nearby Weather Stations